sensor_id;sensor_type;location;lat;lon;timestamp;pressure;altitude;pressure_sealevel;temperature;humidity
22582;BME280;47125;48.542;9.052;2023-06-14T00:04:41;95552.09;;;19.15;36.29
22582;BME280;47125;48.542;9.052;2023-06-14T00:14:44;95552.59;;;19.03;37.06
22582;BME280;47125;48.542;9.052;2023-06-14T00:24:50;95549.16;;;18.70;38.00
22582;BME280;47125;48.542;9.052;2023-06-14T00:34:54;95546.88;;;18.45;38.67
22582;BME280;47125;48.542;9.052;2023-06-14T00:44:58;95535.91;;;18.55;37.99
22582;BME280;47125;48.542;9.052;2023-06-14T00:55:00;95539.16;;;18.39;39.62
22582;BME280;47125;48.542;9.052;2023-06-14T01:05:05;95545.38;;;18.39;39.32
22582;BME280;47125;48.542;9.052;2023-06-14T01:15:09;95541.44;;;18.32;39.40
22582;BME280;47125;48.542;9.052;2023-06-14T01:25:13;95530.09;;;18.16;39.79
22582;BME280;47125;48.542;9.052;2023-06-14T01:35:17;95540.91;;;18.16;39.54
22582;BME280;47125;48.542;9.052;2023-06-14T01:45:22;95547.28;;;18.06;39.86
22582;BME280;47125;48.542;9.052;2023-06-14T01:55:24;95545.72;;;17.87;41.16
22582;BME280;47125;48.542;9.052;2023-06-14T02:05:28;95534.41;;;17.66;40.89
22582;BME280;47125;48.542;9.052;2023-06-14T02:15:31;95546.66;;;17.58;41.14
22582;BME280;47125;48.542;9.052;2023-06-14T02:25:38;95540.94;;;17.41;41.32
22582;BME280;47125;48.542;9.052;2023-06-14T02:35:41;95541.88;;;17.32;41.64
22582;BME280;47125;48.542;9.052;2023-06-14T02:45:45;95547.38;;;17.22;42.29
22582;BME280;47125;48.542;9.052;2023-06-14T02:55:47;95541.09;;;17.07;42.39
22582;BME280;47125;48.542;9.052;2023-06-14T03:05:51;95546.16;;;17.14;42.51
22582;BME280;47125;48.542;9.052;2023-06-14T03:15:55;95555.50;;;16.74;43.27
22582;BME280;47125;48.542;9.052;2023-06-14T03:25:59;95568.16;;;16.79;46.58
22582;BME280;47125;48.542;9.052;2023-06-14T03:36:02;95574.78;;;16.63;47.96
22582;BME280;47125;48.542;9.052;2023-06-14T03:46:06;95565.72;;;16.48;48.67
22582;BME280;47125;48.542;9.052;2023-06-14T03:56:08;95574.19;;;16.37;48.75
22582;BME280;47125;48.542;9.052;2023-06-14T04:06:13;95598.66;;;16.45;47.10
22582;BME280;47125;48.542;9.052;2023-06-14T04:16:20;95599.91;;;16.24;49.15
22582;BME280;47125;48.542;9.052;2023-06-14T04:26:24;95607.94;;;16.29;49.46
22582;BME280;47125;48.542;9.052;2023-06-14T04:36:31;95620.41;;;16.20;48.98
22582;BME280;47125;48.542;9.052;2023-06-14T04:46:37;95631.94;;;16.31;48.39
22582;BME280;47125;48.542;9.052;2023-06-14T04:56:45;95629.50;;;16.29;48.91
22582;BME280;47125;48.542;9.052;2023-06-14T05:06:49;95634.53;;;16.41;49.02
22582;BME280;47125;48.542;9.052;2023-06-14T05:16:52;95653.47;;;16.65;48.41
22582;BME280;47125;48.542;9.052;2023-06-14T05:26:56;95646.88;;;16.81;47.53
22582;BME280;47125;48.542;9.052;2023-06-14T05:36:59;95655.72;;;17.10;46.76
22582;BME280;47125;48.542;9.052;2023-06-14T05:47:03;95669.19;;;17.15;48.47
22582;BME280;47125;48.542;9.052;2023-06-14T05:57:05;95670.28;;;17.38;44.40
22582;BME280;47125;48.542;9.052;2023-06-14T06:07:09;95669.69;;;17.41;45.32
22582;BME280;47125;48.542;9.052;2023-06-14T06:17:12;95678.56;;;17.70;44.91
22582;BME280;47125;48.542;9.052;2023-06-14T06:27:15;95681.22;;;17.94;44.62
22582;BME280;47125;48.542;9.052;2023-06-14T06:37:20;95687.06;;;18.01;44.88
22582;BME280;47125;48.542;9.052;2023-06-14T06:47:23;95696.59;;;18.17;44.77
22582;BME280;47125;48.542;9.052;2023-06-14T06:57:26;95698.03;;;18.47;44.04
22582;BME280;47125;48.542;9.052;2023-06-14T07:07:31;95702.78;;;18.74;44.15
22582;BME280;47125;48.542;9.052;2023-06-14T07:17:34;95701.00;;;18.83;45.25
22582;BME280;47125;48.542;9.052;2023-06-14T07:27:37;95724.91;;;19.08;45.44
22582;BME280;47125;48.542;9.052;2023-06-14T07:37:41;95731.19;;;19.36;44.47
22582;BME280;47125;48.542;9.052;2023-06-14T07:47:44;95731.94;;;19.68;45.01
22582;BME280;47125;48.542;9.052;2023-06-14T07:57:47;95733.34;;;20.07;43.71
22582;BME280;47125;48.542;9.052;2023-06-14T08:07:51;95734.53;;;20.28;43.13
22582;BME280;47125;48.542;9.052;2023-06-14T08:17:54;95735.34;;;20.64;41.29
22582;BME280;47125;48.542;9.052;2023-06-14T08:27:59;95741.03;;;20.99;40.91
22582;BME280;47125;48.542;9.052;2023-06-14T08:38:02;95758.41;;;21.11;39.74
22582;BME280;47125;48.542;9.052;2023-06-14T08:48:06;95753.06;;;21.51;39.76
22582;BME280;47125;48.542;9.052;2023-06-14T08:58:10;95762.63;;;21.79;38.05
22582;BME280;47125;48.542;9.052;2023-06-14T09:08:17;95759.34;;;21.99;39.07
22582;BME280;47125;48.542;9.052;2023-06-14T09:18:24;95767.00;;;22.36;39.76
22582;BME280;47125;48.542;9.052;2023-06-14T09:28:37;95767.81;;;22.63;38.22
22582;BME280;47125;48.542;9.052;2023-06-14T09:38:51;95774.78;;;22.86;37.74
22582;BME280;47125;48.542;9.052;2023-06-14T09:48:55;95778.31;;;22.95;36.98
22582;BME280;47125;48.542;9.052;2023-06-14T09:58:58;95769.97;;;22.91;35.28
22582;BME280;47125;48.542;9.052;2023-06-14T10:09:10;95779.06;;;23.38;34.18
22582;BME280;47125;48.542;9.052;2023-06-14T10:19:14;95765.34;;;23.81;33.99
22582;BME280;47125;48.542;9.052;2023-06-14T10:29:21;95778.84;;;24.16;32.96
22582;BME280;47125;48.542;9.052;2023-06-14T10:39:23;95763.00;;;24.00;31.40
22582;BME280;47125;48.542;9.052;2023-06-14T10:49:40;95760.25;;;23.63;33.38
22582;BME280;47125;48.542;9.052;2023-06-14T10:59:44;95763.69;;;23.34;33.34
22582;BME280;47125;48.542;9.052;2023-06-14T11:09:54;95777.84;;;24.29;32.78
22582;BME280;47125;48.542;9.052;2023-06-14T11:20:08;95740.44;;;25.12;31.47
22582;BME280;47125;48.542;9.052;2023-06-14T11:30:13;95765.94;;;25.37;31.75
22582;BME280;47125;48.542;9.052;2023-06-14T11:40:16;95753.00;;;25.91;32.30
22582;BME280;47125;48.542;9.052;2023-06-14T11:50:19;95753.38;;;26.13;28.88
22582;BME280;47125;48.542;9.052;2023-06-14T12:00:26;95745.50;;;26.36;29.30
22582;BME280;47125;48.542;9.052;2023-06-14T12:10:30;95751.72;;;25.64;30.56
22582;BME280;47125;48.542;9.052;2023-06-14T12:20:41;95746.22;;;27.25;27.48
22582;BME280;47125;48.542;9.052;2023-06-14T12:30:45;95741.16;;;27.11;27.13
22582;BME280;47125;48.542;9.052;2023-06-14T12:40:49;95733.34;;;27.69;27.21
22582;BME280;47125;48.542;9.052;2023-06-14T12:50:53;95737.69;;;28.01;28.21
22582;BME280;47125;48.542;9.052;2023-06-14T13:00:55;95740.53;;;26.78;29.02
22582;BME280;47125;48.542;9.052;2023-06-14T13:10:59;95744.81;;;27.31;28.23
22582;BME280;47125;48.542;9.052;2023-06-14T13:21:01;95752.41;;;27.93;25.99
22582;BME280;47125;48.542;9.052;2023-06-14T13:31:05;95748.25;;;28.30;26.09
22582;BME280;47125;48.542;9.052;2023-06-14T13:41:08;95754.19;;;28.32;25.74
22582;BME280;47125;48.542;9.052;2023-06-14T13:51:12;95737.88;;;28.90;25.10
22582;BME280;47125;48.542;9.052;2023-06-14T14:01:14;95737.63;;;28.44;25.12
22582;BME280;47125;48.542;9.052;2023-06-14T14:11:20;95736.00;;;27.37;26.76
22582;BME280;47125;48.542;9.052;2023-06-14T14:21:23;95728.28;;;28.49;26.74
22582;BME280;47125;48.542;9.052;2023-06-14T14:31:27;95734.34;;;28.39;26.38
22582;BME280;47125;48.542;9.052;2023-06-14T14:41:29;95740.09;;;27.87;27.40
22582;BME280;47125;48.542;9.052;2023-06-14T14:51:33;95738.69;;;27.93;26.67
22582;BME280;47125;48.542;9.052;2023-06-14T15:01:35;95737.00;;;28.20;26.65
22582;BME280;47125;48.542;9.052;2023-06-14T15:11:39;95740.28;;;28.76;26.50
22582;BME280;47125;48.542;9.052;2023-06-14T15:21:42;95748.72;;;28.32;27.70
22582;BME280;47125;48.542;9.052;2023-06-14T15:31:46;95748.44;;;27.90;26.98
22582;BME280;47125;48.542;9.052;2023-06-14T15:41:49;95746.00;;;27.73;25.61
22582;BME280;47125;48.542;9.052;2023-06-14T15:51:54;95743.19;;;27.85;28.02
22582;BME280;47125;48.542;9.052;2023-06-14T16:01:58;95737.22;;;27.52;27.21
22582;BME280;47125;48.542;9.052;2023-06-14T16:12:02;95747.44;;;27.40;28.04
22582;BME280;47125;48.542;9.052;2023-06-14T16:22:05;95747.50;;;26.88;29.28
22582;BME280;47125;48.542;9.052;2023-06-14T16:32:09;95746.16;;;26.69;28.66
22582;BME280;47125;48.542;9.052;2023-06-14T16:42:12;95759.72;;;26.78;28.52
22582;BME280;47125;48.542;9.052;2023-06-14T16:52:16;95754.28;;;26.54;29.80
22582;BME280;47125;48.542;9.052;2023-06-14T17:02:18;95766.19;;;26.34;30.12
22582;BME280;47125;48.542;9.052;2023-06-14T17:12:23;95763.56;;;26.25;30.39
22582;BME280;47125;48.542;9.052;2023-06-14T17:22:26;95767.53;;;26.15;30.34
22582;BME280;47125;48.542;9.052;2023-06-14T17:32:30;95778.56;;;25.50;31.25
22582;BME280;47125;48.542;9.052;2023-06-14T17:42:32;95796.59;;;25.63;30.66
22582;BME280;47125;48.542;9.052;2023-06-14T17:52:36;95800.59;;;25.45;32.12
22582;BME280;47125;48.542;9.052;2023-06-14T18:02:39;95802.41;;;24.87;32.40
22582;BME280;47125;48.542;9.052;2023-06-14T18:12:42;95803.53;;;24.86;33.09
22582;BME280;47125;48.542;9.052;2023-06-14T18:22:46;95813.75;;;24.68;33.43
22582;BME280;47125;48.542;9.052;2023-06-14T18:32:50;95818.38;;;24.01;34.22
22582;BME280;47125;48.542;9.052;2023-06-14T18:42:52;95830.16;;;23.84;35.58
22582;BME280;47125;48.542;9.052;2023-06-14T18:52:56;95841.38;;;23.83;35.82
22582;BME280;47125;48.542;9.052;2023-06-14T19:02:59;95838.25;;;23.55;36.94
22582;BME280;47125;48.542;9.052;2023-06-14T19:13:03;95846.72;;;23.11;38.19
22582;BME280;47125;48.542;9.052;2023-06-14T19:23:08;95859.06;;;23.08;37.38
22582;BME280;47125;48.542;9.052;2023-06-14T19:33:11;95864.69;;;22.55;39.64
22582;BME280;47125;48.542;9.052;2023-06-14T19:43:14;95884.03;;;22.45;39.51
22582;BME280;47125;48.542;9.052;2023-06-14T19:53:18;95892.38;;;22.09;40.00
22582;BME280;47125;48.542;9.052;2023-06-14T20:03:21;95900.03;;;22.07;39.31
22582;BME280;47125;48.542;9.052;2023-06-14T20:13:25;95914.50;;;21.94;39.58
22582;BME280;47125;48.542;9.052;2023-06-14T20:23:27;95915.88;;;21.83;39.45
22582;BME280;47125;48.542;9.052;2023-06-14T20:33:31;95913.19;;;21.69;39.39
22582;BME280;47125;48.542;9.052;2023-06-14T20:43:34;95905.53;;;21.49;39.77
22582;BME280;47125;48.542;9.052;2023-06-14T20:53:38;95918.38;;;21.35;40.04
22582;BME280;47125;48.542;9.052;2023-06-14T21:03:40;95921.75;;;21.05;40.74
22582;BME280;47125;48.542;9.052;2023-06-14T21:13:44;95918.34;;;21.13;40.28
22582;BME280;47125;48.542;9.052;2023-06-14T21:23:46;95921.88;;;21.00;40.64
22582;BME280;47125;48.542;9.052;2023-06-14T21:33:50;95918.50;;;20.67;41.65
22582;BME280;47125;48.542;9.052;2023-06-14T21:43:53;95918.47;;;20.53;41.91
22582;BME280;47125;48.542;9.052;2023-06-14T21:53:57;95925.22;;;20.42;42.42
22582;BME280;47125;48.542;9.052;2023-06-14T22:03:59;95925.13;;;20.33;42.64
22582;BME280;47125;48.542;9.052;2023-06-14T22:14:03;95932.69;;;20.18;42.58
22582;BME280;47125;48.542;9.052;2023-06-14T22:24:06;95935.47;;;19.99;43.47
22582;BME280;47125;48.542;9.052;2023-06-14T22:34:10;95931.94;;;19.99;43.27
22582;BME280;47125;48.542;9.052;2023-06-14T22:44:13;95927.56;;;19.70;43.74
22582;BME280;47125;48.542;9.052;2023-06-14T22:54:19;95923.75;;;19.71;43.95
22582;BME280;47125;48.542;9.052;2023-06-14T23:04:21;95928.53;;;19.61;43.87
22582;BME280;47125;48.542;9.052;2023-06-14T23:14:26;95916.88;;;19.60;44.14
22582;BME280;47125;48.542;9.052;2023-06-14T23:24:30;95911.50;;;19.42;44.62
22582;BME280;47125;48.542;9.052;2023-06-14T23:34:37;95913.16;;;19.38;44.75
22582;BME280;47125;48.542;9.052;2023-06-14T23:44:39;95915.28;;;19.22;45.47
22582;BME280;47125;48.542;9.052;2023-06-14T23:54:43;95914.56;;;18.98;45.60
